• Join FlightAware (Why Join?)
  • Login
  • US Flag 
05:56AM EST


 

Airport Tracker/Info


-or-


 

Live Flight TrackerFlight Track Log ✈ TAM8008 ✈ 30-Apr-2013 ✈ SBGR / GRU - SABE / AEP

Flight Track Log - Related Links

Times and Time Zones

All times are in EDT time to prevent confusion due to time zone crossing. See the TAM8008 flight status page for this flight to view local times or setup timezone preferences in your user account.

Time Position Orientation Groundspeed Altitude Reporting Facility
EDT Latitude Longitude Course Direction KTS MPH feet Rate Location/Type
05:47PM -23.4240 -46.4450 73° East 170 196 3,200  Level FlightAware
05:47PM -23.4220 -46.4360 76° East 180 207 3,400 780 Climbing FlightAware
05:48PM -23.4280 -46.4200 112° Southeast 192 221 3,600 780 Climbing FlightAware
05:48PM -23.4390 -46.4140 153° Southeast 209 241 3,800 1,680 Climbing FlightAware
05:48PM -23.4540 -46.4160 187° South 218 251 4,300 2,160 Climbing FlightAware
05:48PM -23.4650 -46.4290 227° Southwest 223 257 4,900 1,560 Climbing FlightAware
05:49PM -23.4850 -46.4580 233° Southwest 246 283 5,500 1,380 Climbing FlightAware
05:49PM -23.5030 -46.4840 233° Southwest 271 312 6,200 2,580 Climbing FlightAware
05:50PM -23.5280 -46.5170 230° Southwest 267 307 7,900 3,180 Climbing FlightAware
05:50PM -23.5500 -46.5490 233° Southwest 265 305 9,400 2,280 Climbing FlightAware
05:51PM -23.5820 -46.5920 231° Southwest 287 330 10,600 1,260 Climbing FlightAware
05:52PM -23.6130 -46.6350 232° Southwest 327 376 11,100 1,320 Climbing FlightAware
05:52PM -23.6710 -46.6970 224° Southwest 346 398 12,500 1,920 Climbing FlightAware
05:53PM -23.7200 -46.7440 221° Southwest 350 403 13,900 1,920 Climbing FlightAware
05:54PM -23.7770 -46.7990 221° Southwest 364 419 15,300 1,800 Climbing FlightAware
05:54PM -23.8280 -46.8480 221° Southwest 371 427 16,500 1,560 Climbing FlightAware
05:55PM -23.8790 -46.8970 221° Southwest 382 440 17,400 1,620 Climbing FlightAware
05:56PM -23.9400 -46.9560 221° Southwest 385 443 18,800 1,740 Climbing FlightAware
05:57PM -23.9930 -47.0080 222° Southwest 389 448 19,900 1,500 Climbing FlightAware
05:57PM -24.0480 -47.0610 221° Southwest 392 451 20,800 1,320 Climbing FlightAware
05:58PM -24.1110 -47.1230 222° Southwest 399 459 21,800 1,560 Climbing FlightAware
05:59PM -24.1880 -47.1970 221° Southwest 393 452 23,400 1,440 Climbing FlightAware
06:00PM -24.2430 -47.2510 222° Southwest 406 467 24,100 1,020 Climbing FlightAware
06:00PM -24.3080 -47.3140 221° Southwest 412 474 24,900 1,020 Climbing FlightAware
06:01PM -24.3660 -47.3710 222° Southwest 412 474 25,600 960 Climbing FlightAware
06:02PM -24.4300 -47.4340 222° Southwest 417 480 26,300 1,080 Climbing FlightAware
06:02PM -24.4820 -47.4850 222° Southwest 416 479 27,100 960 Climbing FlightAware
06:03PM -24.5450 -47.5470 222° Southwest 429 494 27,700 900 Climbing FlightAware
06:04PM -24.6100 -47.6100 221° Southwest 428 493 28,600 1,080 Climbing FlightAware
06:05PM -24.6700 -47.6700 222° Southwest 429 494 29,300 1,020 Climbing FlightAware
06:05PM -24.7250 -47.7240 222° Southwest 431 496 29,900 1,020 Climbing FlightAware
06:06PM -24.7940 -47.7920 222° Southwest 426 490 30,800 1,200 Climbing FlightAware
06:07PM -24.8560 -47.8530 222° Southwest 422 486 31,700 1,380 Climbing FlightAware
06:07PM -24.9170 -47.9140 222° Southwest 413 475 32,700 1,200 Climbing FlightAware
06:08PM -24.9740 -47.9700 222° Southwest 409 471 33,400 840 Climbing FlightAware
06:09PM -25.0320 -48.0270 222° Southwest 410 472 33,900 420 Climbing FlightAware
06:09PM -25.0880 -48.0830 222° Southwest 407 468 34,000 60 Climbing FlightAware
06:10PM -25.1570 -48.1520 222° Southwest 407 468 34,000  Level FlightAware
06:11PM -25.2100 -48.2050 222° Southwest 405 466 34,000  Level FlightAware
06:11PM -25.2630 -48.2580 222° Southwest 404 465 34,000  Level FlightAware
06:12PM -25.3230 -48.3180 222° Southwest 404 465 34,000  Level FlightAware
06:13PM -25.3910 -48.3860 222° Southwest 403 464 34,000  Level FlightAware
06:13PM -25.4320 -48.4270 222° Southwest 403 464 34,000  Level FlightAware
06:14PM -25.5070 -48.5030 222° Southwest 399 459 34,000  Level FlightAware
06:15PM -25.5580 -48.5510 220° Southwest 399 459 34,000  Level FlightAware
06:16PM -25.6200 -48.6060 219° Southwest 398 458 34,000  Level FlightAware
06:16PM -25.6930 -48.6710 219° Southwest 396 456 34,000  Level FlightAware
06:17PM -25.7490 -48.7200 218° Southwest 396 456 34,000  Level FlightAware
06:18PM -25.8150 -48.7790 219° Southwest 396 456 34,000  Level FlightAware
06:19PM -25.8740 -48.8310 218° Southwest 397 457 34,000  Level FlightAware
06:19PM -25.9230 -48.8760 220° Southwest 396 456 34,000  Level FlightAware
06:20PM -25.9930 -48.9380 219° Southwest 395 455 34,000  Level FlightAware
06:21PM -26.0430 -48.9830 219° Southwest 393 452 34,000  Level FlightAware
06:21PM -26.1050 -49.0390 219° Southwest 395 455 34,000  Level FlightAware
06:22PM -26.1650 -49.0930 219° Southwest 396 456 34,000  Level FlightAware
06:23PM -26.2160 -49.1390 219° Southwest 397 457 34,000  Level FlightAware
06:23PM -26.2940 -49.2090 219° Southwest 398 458 34,000  Level FlightAware
06:24PM -26.3480 -49.2580 219° Southwest 396 456 34,000  Level FlightAware
06:25PM -26.4140 -49.3170 219° Southwest 394 453 34,000  Level FlightAware
06:26PM -26.4860 -49.3820 219° Southwest 392 451 34,000  Level FlightAware
06:26PM -26.5460 -49.4370 219° Southwest 393 452 34,000  Level FlightAware
06:27PM -26.6090 -49.4940 219° Southwest 393 452 34,000  Level FlightAware
06:28PM -26.6650 -49.5450 219° Southwest 392 451 34,000  Level FlightAware
06:29PM -26.7230 -49.5970 219° Southwest 390 449 34,000  Level FlightAware
06:29PM -26.7850 -49.6540 219° Southwest 391 450 34,000  Level FlightAware
06:30PM -26.8390 -49.7030 219° Southwest 392 451 34,000  Level FlightAware
06:31PM -26.8920 -49.7520 220° Southwest 393 452 34,000  Level FlightAware
06:31PM -26.9610 -49.8150 219° Southwest 393 452 34,000  Level FlightAware
06:32PM -27.0180 -49.8670 219° Southwest 392 451 34,000  Level FlightAware
06:33PM -27.0810 -49.9240 219° Southwest 390 449 34,000  Level FlightAware
06:33PM -27.1320 -49.9720 220° Southwest 387 445 34,000  Level FlightAware
06:34PM -27.2010 -50.0350 219° Southwest 385 443 34,000  Level FlightAware
06:35PM -27.2570 -50.0870 220° Southwest 383 441 34,000  Level FlightAware
06:35PM -27.1910 -50.0260 39° Northeast 388 447 34,000  Level FlightAware
06:36PM -27.3720 -50.1930 219° Southwest 384 442 34,000  Level FlightAware
06:37PM -27.4270 -50.2440 219° Southwest 385 443 34,000  Level FlightAware
06:38PM -27.4800 -50.2930 219° Southwest 385 443 34,000  Level FlightAware
06:38PM -27.5450 -50.3530 219° Southwest 384 442 34,000  Level FlightAware
06:39PM -27.5990 -50.4040 220° Southwest 382 440 34,000  Level FlightAware
06:40PM -27.6610 -50.4610 219° Southwest 382 440 34,000  Level FlightAware
06:40PM -27.7160 -50.5120 219° Southwest 382 440 34,000  Level FlightAware
06:41PM -27.7780 -50.5700 220° Southwest 384 442 34,000  Level FlightAware
06:42PM -27.8160 -50.6060 220° Southwest 383 441 34,000  Level FlightAware
06:42PM -27.8780 -50.6630 219° Southwest 382 440 34,000  Level FlightAware
06:43PM -27.9460 -50.7280 220° Southwest 382 440 34,000  Level FlightAware
06:44PM -27.9950 -50.7730 219° Southwest 382 440 34,000  Level FlightAware
06:45PM -28.0640 -50.8390 220° Southwest 381 438 34,000  Level FlightAware
06:45PM -28.1180 -50.8890 219° Southwest 379 436 34,000  Level FlightAware
06:46PM -28.1720 -50.9400 220° Southwest 379 436 34,000  Level FlightAware
06:47PM -28.2310 -50.9960 220° Southwest 376 433 34,000  Level FlightAware
06:47PM -28.2830 -51.0450 220° Southwest 374 430 34,000  Level FlightAware
06:48PM -28.3450 -51.1030 219° Southwest 374 430 34,000  Level FlightAware
06:49PM -28.3980 -51.1540 220° Southwest 374 430 34,000  Level FlightAware
06:50PM -28.4520 -51.2050 220° Southwest 374 430 34,000  Level FlightAware
06:50PM -28.5100 -51.2600 220° Southwest 374 430 34,000  Level FlightAware
06:51PM -28.5620 -51.3100 220° Southwest 374 430 34,000  Level FlightAware
06:52PM -28.6220 -51.3670 220° Southwest 374 430 34,000  Level FlightAware
06:52PM -28.6770 -51.4200 220° Southwest 376 433 34,000  Level FlightAware
06:53PM -28.7300 -51.4700 220° Southwest 377 434 34,000  Level FlightAware
06:54PM -28.7830 -51.5210 220° Southwest 378 435 34,000  Level FlightAware
06:54PM -28.8440 -51.5790 220° Southwest 381 438 34,000  Level FlightAware
06:55PM -28.9050 -51.6380 220° Southwest 383 441 34,000  Level FlightAware
06:56PM -28.9600 -51.6910 220° Southwest 383 441 34,000  Level FlightAware
06:57PM -29.0150 -51.7430 220° Southwest 382 440 34,000  Level FlightAware
06:57PM -29.0740 -51.8000 220° Southwest 381 438 34,000  Level FlightAware
06:58PM -29.1290 -51.8530 220° Southwest 380 437 34,000  Level FlightAware
06:59PM -29.1810 -51.9040 221° Southwest 379 436 34,000  Level FlightAware
06:59PM -29.2430 -51.9640 220° Southwest 380 437 34,000  Level FlightAware
07:00PM -29.2980 -52.0170 220° Southwest 380 437 34,000  Level FlightAware
07:01PM -29.3560 -52.0730 220° Southwest 380 437 34,000  Level FlightAware
07:01PM -29.4100 -52.1260 221° Southwest 380 437 34,000  Level FlightAware
07:02PM -29.4710 -52.1860 221° Southwest 380 437 34,000  Level FlightAware
07:03PM -29.5240 -52.2380 220° Southwest 378 435 34,000  Level FlightAware
07:04PM -29.5790 -52.2910 220° Southwest 380 437 34,000  Level FlightAware
07:04PM -29.6350 -52.3460 220° Southwest 379 436 34,000  Level FlightAware
07:05PM -29.6880 -52.3990 221° Southwest 380 437 34,000  Level FlightAware
07:06PM -29.7420 -52.4510 220° Southwest 380 437 34,000  Level FlightAware
07:06PM -29.8020 -52.5100 220° Southwest 382 440 34,000  Level FlightAware
07:07PM -29.8550 -52.5620 220° Southwest 382 440 34,000  Level FlightAware
07:08PM -29.9160 -52.6230 221° Southwest 381 438 34,000  Level FlightAware
07:08PM -29.9690 -52.6750 220° Southwest 380 437 34,000  Level FlightAware
07:09PM -30.0220 -52.7280 221° Southwest 377 434 34,000  Level FlightAware
07:10PM -30.0820 -52.7870 220° Southwest 377 434 34,000  Level FlightAware
07:11PM -30.1360 -52.8410 221° Southwest 377 434 34,000  Level FlightAware
07:11PM -30.1940 -52.8990 221° Southwest 378 435 34,000  Level FlightAware
07:12PM -30.2480 -52.9520 220° Southwest 378 435 34,000  Level FlightAware
07:13PM -30.3070 -53.0120 221° Southwest 380 437 34,000  Level FlightAware
07:13PM -30.3620 -53.0660 220° Southwest 380 437 34,000  Level FlightAware
07:14PM -30.4140 -53.1180 221° Southwest 380 437 34,000  Level FlightAware
07:15PM -30.4760 -53.1800 221° Southwest 379 436 34,000  Level FlightAware
07:15PM -30.5270 -53.2310 221° Southwest 379 436 34,000  Level FlightAware
07:16PM -30.5870 -53.2910 221° Southwest 380 437 34,000  Level FlightAware
07:17PM -30.6400 -53.3450 221° Southwest 382 440 34,000  Level FlightAware
07:18PM -30.6950 -53.4000 221° Southwest 382 440 34,000  Level FlightAware
07:18PM -30.7530 -53.4590 221° Southwest 383 441 34,000  Level FlightAware
07:19PM -30.8080 -53.5140 221° Southwest 382 440 34,000  Level FlightAware
07:20PM -30.8610 -53.5680 221° Southwest 381 438 34,000  Level FlightAware
07:20PM -30.9210 -53.6290 221° Southwest 379 436 34,000  Level FlightAware
07:21PM -30.9730 -53.6820 221° Southwest 379 436 34,000  Level FlightAware
07:22PM -31.0330 -53.7430 221° Southwest 380 437 34,000  Level FlightAware
07:22PM -31.0840 -53.7950 221° Southwest 379 436 34,000  Level FlightAware
07:23PM -31.1430 -53.8550 221° Southwest 379 436 34,000  Level FlightAware
07:24PM -31.2010 -53.9140 221° Southwest 379 436 34,000  Level FlightAware
07:25PM -31.2540 -53.9690 222° Southwest 378 435 34,000  Level FlightAware
07:25PM -31.2940 -54.0100 221° Southwest 378 435 34,000  Level FlightAware
07:26PM -31.3470 -54.0640 221° Southwest 376 433 34,000  Level FlightAware
07:27PM -31.4320 -54.1580 223° Southwest 376 433 34,000  Level FlightAware
07:28PM -31.4800 -54.2150 225° Southwest 379 436 34,000  Level FlightAware
07:28PM -31.5360 -54.2800 225° Southwest 379 436 34,000  Level FlightAware
07:29PM -31.5790 -54.3310 225° Southwest 380 437 34,000  Level FlightAware
07:30PM -31.6220 -54.3810 225° Southwest 380 437 34,000  Level FlightAware
07:30PM -31.6640 -54.4310 225° Southwest 380 437 34,000  Level FlightAware
07:31PM -31.7170 -54.4930 225° Southwest 380 437 34,000  Level FlightAware
07:32PM -31.7590 -54.5420 225° Southwest 380 437 34,000  Level FlightAware
07:32PM -31.8010 -54.5920 225° Southwest 380 437 34,000  Level FlightAware
07:33PM -31.8440 -54.6420 225° Southwest 380 437 34,000  Level FlightAware
07:34PM -31.8860 -54.6920 225° Southwest 380 437 34,000  Level FlightAware
07:35PM -31.9390 -54.7540 225° Southwest 380 437 34,000  Level FlightAware
07:35PM -31.9810 -54.8040 225° Southwest 380 437 34,000  Level FlightAware
07:36PM -32.0230 -54.8540 225° Southwest 380 437 34,000  Level FlightAware
07:37PM -32.0650 -54.9030 225° Southwest 380 437 34,000  Level FlightAware
07:37PM -32.1080 -54.9530 225° Southwest 380 437 34,000  Level FlightAware
07:38PM -32.1600 -55.0160 226° Southwest 380 437 34,000  Level FlightAware
07:41PM -32.3296 -55.2461 229° Southwest  Level Estimated
07:42PM -32.4006 -55.3429 229° Southwest  Level Estimated
07:43PM -32.4715 -55.4399 229° Southwest  Level Estimated
07:44PM -32.5424 -55.5370 229° Southwest  Level Estimated
07:45PM -32.6132 -55.6343 229° Southwest  Level Estimated
07:45PM -32.6040 -55.8140 229° Southwest 374 430 34,000  Level FlightAware
07:45PM -32.6410 -55.8690 231° Southwest 374 430 34,000  Level FlightAware
07:46PM -32.6880 -55.9370 231° Southwest 374 430 34,000  Level FlightAware
07:47PM -32.7250 -55.9910 231° Southwest 374 430 34,000  Level FlightAware
07:47PM -32.7620 -56.0450 231° Southwest 374 430 34,000  Level FlightAware
07:48PM -32.7990 -56.1000 231° Southwest 374 430 34,000  Level FlightAware
07:49PM -32.8730 -56.2110 232° Southwest 372 428 34,000  Level FlightAware
07:50PM -32.9190 -56.2810 232° Southwest 369 425 34,000  Level FlightAware
07:50PM -32.9790 -56.3710 232° Southwest 368 423 34,000  Level FlightAware
07:51PM -33.0230 -56.4360 231° Southwest 368 423 34,000  Level FlightAware
07:52PM -33.0560 -56.4860 232° Southwest 368 423 34,000  Level FlightAware
07:53PM -33.1160 -56.5760 231° Southwest 368 423 34,000  Level FlightAware
07:53PM -33.1520 -56.6310 232° Southwest 368 423 34,000  Level FlightAware
07:54PM -33.2050 -56.7100 231° Southwest 369 425 34,000  Level FlightAware
07:55PM -33.2470 -56.7740 232° Southwest 368 423 34,000  Level FlightAware
07:55PM -33.2960 -56.8480 232° Southwest 369 425 34,000  Level FlightAware
07:56PM -33.3390 -56.9120 231° Southwest 368 423 34,000  Level FlightAware
07:57PM -33.3800 -56.9760 232° Southwest 368 423 34,000  Level FlightAware
07:57PM -33.4270 -57.0470 232° Southwest 368 423 34,000  Level FlightAware
07:58PM -33.4690 -57.1110 232° Southwest 368 423 34,000  Level FlightAware
07:59PM -33.5100 -57.1740 232° Southwest 369 425 34,000  Level FlightAware
08:00PM -33.5600 -57.2490 231° Southwest 367 422 34,000 -540 Level FlightAware
08:00PM -33.6020 -57.3140 232° Southwest 375 432 33,300 -2,700 Descending FlightAware
08:01PM -33.6500 -57.3890 232° Southwest 399 459 30,200 -3,840 Descending FlightAware
08:02PM -33.6960 -57.4590 232° Southwest 406 467 27,900 -3,060 Descending FlightAware
08:02PM -33.7490 -57.5400 232° Southwest 397 457 25,900 -2,640 Descending FlightAware
08:03PM -33.7940 -57.6100 232° Southwest 389 448 24,200 -2,520 Descending FlightAware
08:04PM -33.8370 -57.6770 232° Southwest 380 437 22,600 -2,400 Descending FlightAware
08:04PM -33.8840 -57.7500 232° Southwest 370 426 20,800 -2,280 Descending FlightAware
08:05PM -33.9250 -57.8140 232° Southwest 360 414 19,400 -2,220 Descending FlightAware
08:06PM -33.9660 -57.8770 232° Southwest 355 409 17,900 -2,220 Descending FlightAware
08:07PM -34.0120 -57.9480 232° Southwest 350 403 16,300 -2,340 Descending FlightAware
08:07PM -34.0470 -58.0130 237° Southwest 347 399 14,600 -2,220 Descending FlightAware
08:08PM -34.0760 -58.0900 246° West 337 388 13,200 -1,860 Descending FlightAware
08:09PM -34.1010 -58.1580 246° West 332 382 12,000 -1,800 Descending FlightAware
08:09PM -34.1290 -58.2340 246° West 327 376 10,700 -1,320 Descending FlightAware
08:10PM -34.1530 -58.2980 246° West 301 346 10,200 -1,080 Descending FlightAware
08:11PM -34.1700 -58.3440 246° West 296 341 9,500 -1,440 Descending FlightAware
08:11PM -34.1840 -58.3810 245° Southwest 295 339 8,900 -1,680 Descending FlightAware
08:11PM -34.2010 -58.4260 245° Southwest 296 341 8,000 -1,680 Descending FlightAware
08:12PM -34.2150 -58.4650 247° West 295 339 7,400 -1,560 Descending FlightAware
08:12PM -34.2320 -58.5100 245° Southwest 293 337 6,600 -1,440 Descending FlightAware
08:13PM -34.2450 -58.5450 246° West 289 333 6,100 -1,320 Descending FlightAware
08:13PM -34.2610 -58.5900 247° West 285 328 5,400 -900 Descending FlightAware
08:14PM -34.2770 -58.6320 245° Southwest 263 303 5,200 -1,200 Descending FlightAware
08:14PM -34.2880 -58.6510 235° Southwest 274 315 4,500 -2,640 Descending FlightAware
08:14PM -34.2990 -58.6590 211° Southwest 282 325 4,100 -2,100 Descending FlightAware
08:14PM -34.3110 -58.6610 188° South 279 321 3,800 -1,200 Descending FlightAware
08:15PM -34.3350 -58.6510 161° South 264 304 3,500 -1,560 Descending FlightAware
08:15PM -34.3700 -58.6310 155° Southeast 271 312 2,500 -1,200 Descending FlightAware
08:16PM -34.3970 -58.6150 154° Southeast 252 290 2,400 -120 Descending FlightAware
08:16PM -34.4260 -58.5980 154° Southeast 234 269 2,400  Level FlightAware
08:17PM -34.4500 -58.5850 156° South 223 257 2,400  Level FlightAware
08:17PM -34.4740 -58.5620 142° Southeast 190 219 2,400 -300 Level FlightAware
08:18PM -34.4900 -58.5400 131° Southeast 165 190 2,100 -660 Descending FlightAware
08:18PM -34.4990 -58.5230 123° Southeast 151 174 1,800 -780 Descending FlightAware
08:18PM -34.5110 -58.5020 125° Southeast 143 165 1,400 -780 Descending FlightAware
08:19PM -34.5150 -58.4960 129° Southeast 139 160 1,300 -780 Descending FlightAware
08:19PM -34.5250 -58.4770 123° Southeast 133 153 900 -720 Descending FlightAware
08:20PM -34.5360 -58.4580 125° Southeast 132 152 600 -660 Descending FlightAware
08:20PM -34.5440 -58.4430 123° Southeast 132 152 300 -420 Descending FlightAware
08:21PM -34.5550 -58.4230 124° Southeast 133 153 200 -180 Descending FlightAware
08:23PM -34.5592 -58.4156 124° Southeast  Level Estimated